sensor_id;sensor_type;location;lat;lon;timestamp;P1;durP1;ratioP1;P2;durP2;ratioP2
5295;SDS011;2670;42.720;23.336;2023-05-10T00:00:52;4.20;;;3.53;;
5295;SDS011;2670;42.720;23.336;2023-05-10T00:03:18;5.97;;;4.50;;
5295;SDS011;2670;42.720;23.336;2023-05-10T00:05:45;13.17;;;5.00;;
5295;SDS011;2670;42.720;23.336;2023-05-10T00:08:13;6.00;;;5.23;;
5295;SDS011;2670;42.720;23.336;2023-05-10T00:10:40;9.17;;;6.20;;
5295;SDS011;2670;42.720;23.336;2023-05-10T00:13:07;12.27;;;7.10;;
5295;SDS011;2670;42.720;23.336;2023-05-10T00:15:33;8.90;;;6.20;;
5295;SDS011;2670;42.720;23.336;2023-05-10T00:18:00;9.50;;;7.60;;
5295;SDS011;2670;42.720;23.336;2023-05-10T00:20:27;8.97;;;7.80;;
5295;SDS011;2670;42.720;23.336;2023-05-10T00:22:54;9.70;;;6.63;;
5295;SDS011;2670;42.720;23.336;2023-05-10T00:25:22;10.60;;;7.10;;
5295;SDS011;2670;42.720;23.336;2023-05-10T00:27:48;9.77;;;6.73;;
5295;SDS011;2670;42.720;23.336;2023-05-10T00:30:15;7.73;;;6.57;;
5295;SDS011;2670;42.720;23.336;2023-05-10T00:32:42;7.83;;;6.20;;
5295;SDS011;2670;42.720;23.336;2023-05-10T00:35:09;7.87;;;5.60;;
5295;SDS011;2670;42.720;23.336;2023-05-10T00:37:36;8.40;;;6.17;;
5295;SDS011;2670;42.720;23.336;2023-05-10T00:40:03;7.83;;;5.60;;
5295;SDS011;2670;42.720;23.336;2023-05-10T00:42:31;7.23;;;6.20;;
5295;SDS011;2670;42.720;23.336;2023-05-10T00:44:58;6.87;;;5.97;;
5295;SDS011;2670;42.720;23.336;2023-05-10T00:47:25;8.80;;;6.27;;
5295;SDS011;2670;42.720;23.336;2023-05-10T00:49:52;9.37;;;7.10;;
5295;SDS011;2670;42.720;23.336;2023-05-10T00:52:19;13.17;;;7.57;;
5295;SDS011;2670;42.720;23.336;2023-05-10T00:54:46;9.00;;;7.30;;
5295;SDS011;2670;42.720;23.336;2023-05-10T00:57:13;9.33;;;7.17;;
5295;SDS011;2670;42.720;23.336;2023-05-10T00:59:41;9.40;;;7.40;;
5295;SDS011;2670;42.720;23.336;2023-05-10T01:02:08;10.70;;;7.40;;
5295;SDS011;2670;42.720;23.336;2023-05-10T01:04:35;9.50;;;7.50;;
5295;SDS011;2670;42.720;23.336;2023-05-10T01:07:03;9.03;;;7.60;;
5295;SDS011;2670;42.720;23.336;2023-05-10T01:09:29;11.40;;;8.33;;
5295;SDS011;2670;42.720;23.336;2023-05-10T01:11:57;15.07;;;7.63;;
5295;SDS011;2670;42.720;23.336;2023-05-10T01:14:24;11.53;;;8.47;;
5295;SDS011;2670;42.720;23.336;2023-05-10T01:16:53;10.57;;;7.80;;
5295;SDS011;2670;42.720;23.336;2023-05-10T01:19:22;10.03;;;8.40;;
5295;SDS011;2670;42.720;23.336;2023-05-10T01:21:53;9.20;;;7.20;;
5295;SDS011;2670;42.720;23.336;2023-05-10T01:24:36;9.90;;;7.10;;
5295;SDS011;2670;42.720;23.336;2023-05-10T01:27:19;13.43;;;8.10;;
5295;SDS011;2670;42.720;23.336;2023-05-10T01:30:05;8.80;;;6.70;;
5295;SDS011;2670;42.720;23.336;2023-05-10T01:32:47;8.67;;;6.93;;
5295;SDS011;2670;42.720;23.336;2023-05-10T01:35:22;9.53;;;7.97;;
5295;SDS011;2670;42.720;23.336;2023-05-10T01:37:58;10.30;;;6.77;;
5295;SDS011;2670;42.720;23.336;2023-05-10T01:40:32;8.30;;;6.47;;
5295;SDS011;2670;42.720;23.336;2023-05-10T01:43:04;7.37;;;6.40;;
5295;SDS011;2670;42.720;23.336;2023-05-10T01:45:46;9.10;;;6.47;;
5295;SDS011;2670;42.720;23.336;2023-05-10T01:48:18;8.50;;;6.30;;
5295;SDS011;2670;42.720;23.336;2023-05-10T01:50:47;6.73;;;4.93;;
5295;SDS011;2670;42.720;23.336;2023-05-10T01:53:17;6.70;;;5.63;;
5295;SDS011;2670;42.720;23.336;2023-05-10T01:55:46;9.27;;;5.80;;
5295;SDS011;2670;42.720;23.336;2023-05-10T01:58:17;6.50;;;5.50;;
5295;SDS011;2670;42.720;23.336;2023-05-10T02:00:49;6.40;;;5.40;;
5295;SDS011;2670;42.720;23.336;2023-05-10T02:03:20;6.10;;;5.30;;
5295;SDS011;2670;42.720;23.336;2023-05-10T02:05:49;7.60;;;5.77;;
5295;SDS011;2670;42.720;23.336;2023-05-10T02:08:18;7.30;;;5.93;;
5295;SDS011;2670;42.720;23.336;2023-05-10T02:10:46;6.57;;;5.50;;
5295;SDS011;2670;42.720;23.336;2023-05-10T02:13:15;7.00;;;5.40;;
5295;SDS011;2670;42.720;23.336;2023-05-10T02:15:43;6.00;;;5.20;;
5295;SDS011;2670;42.720;23.336;2023-05-10T02:18:13;6.70;;;5.27;;
5295;SDS011;2670;42.720;23.336;2023-05-10T02:20:42;7.97;;;5.60;;
5295;SDS011;2670;42.720;23.336;2023-05-10T02:23:11;6.50;;;5.30;;
5295;SDS011;2670;42.720;23.336;2023-05-10T02:25:39;13.50;;;5.90;;
5295;SDS011;2670;42.720;23.336;2023-05-10T02:28:07;8.87;;;5.47;;
5295;SDS011;2670;42.720;23.336;2023-05-10T02:30:35;6.23;;;4.90;;
5295;SDS011;2670;42.720;23.336;2023-05-10T02:33:02;8.00;;;5.97;;
5295;SDS011;2670;42.720;23.336;2023-05-10T02:35:31;6.90;;;5.50;;
5295;SDS011;2670;42.720;23.336;2023-05-10T02:38:00;6.20;;;4.90;;
5295;SDS011;2670;42.720;23.336;2023-05-10T02:40:27;5.97;;;5.23;;
5295;SDS011;2670;42.720;23.336;2023-05-10T02:42:55;6.23;;;4.73;;
5295;SDS011;2670;42.720;23.336;2023-05-10T02:45:24;6.77;;;4.73;;
5295;SDS011;2670;42.720;23.336;2023-05-10T02:47:55;6.57;;;5.00;;
5295;SDS011;2670;42.720;23.336;2023-05-10T02:50:22;6.57;;;4.90;;
5295;SDS011;2670;42.720;23.336;2023-05-10T02:52:54;5.90;;;4.83;;
5295;SDS011;2670;42.720;23.336;2023-05-10T02:55:27;4.73;;;4.33;;
5295;SDS011;2670;42.720;23.336;2023-05-10T02:58:01;8.03;;;5.70;;
5295;SDS011;2670;42.720;23.336;2023-05-10T03:00:29;7.90;;;4.53;;
5295;SDS011;2670;42.720;23.336;2023-05-10T03:02:55;10.43;;;5.10;;
5295;SDS011;2670;42.720;23.336;2023-05-10T03:05:22;7.80;;;4.73;;
5295;SDS011;2670;42.720;23.336;2023-05-10T03:07:49;6.50;;;4.50;;
5295;SDS011;2670;42.720;23.336;2023-05-10T03:10:16;6.63;;;5.17;;
5295;SDS011;2670;42.720;23.336;2023-05-10T03:12:50;8.00;;;5.40;;
5295;SDS011;2670;42.720;23.336;2023-05-10T03:15:33;7.70;;;5.30;;
5295;SDS011;2670;42.720;23.336;2023-05-10T03:18:09;7.03;;;5.30;;
5295;SDS011;2670;42.720;23.336;2023-05-10T03:20:38;8.10;;;5.63;;
5295;SDS011;2670;42.720;23.336;2023-05-10T03:23:11;6.70;;;4.77;;
5295;SDS011;2670;42.720;23.336;2023-05-10T03:25:40;10.27;;;5.07;;
5295;SDS011;2670;42.720;23.336;2023-05-10T03:28:11;6.17;;;4.80;;
5295;SDS011;2670;42.720;23.336;2023-05-10T03:30:38;5.50;;;4.80;;
5295;SDS011;2670;42.720;23.336;2023-05-10T03:33:06;5.80;;;4.63;;
5295;SDS011;2670;42.720;23.336;2023-05-10T03:35:34;6.60;;;4.90;;
5295;SDS011;2670;42.720;23.336;2023-05-10T03:38:00;5.63;;;4.47;;
5295;SDS011;2670;42.720;23.336;2023-05-10T03:40:27;9.23;;;6.03;;
5295;SDS011;2670;42.720;23.336;2023-05-10T03:42:56;8.53;;;5.20;;
5295;SDS011;2670;42.720;23.336;2023-05-10T03:45:24;7.20;;;5.07;;
5295;SDS011;2670;42.720;23.336;2023-05-10T03:47:51;9.93;;;5.63;;
5295;SDS011;2670;42.720;23.336;2023-05-10T03:50:19;8.17;;;4.97;;
5295;SDS011;2670;42.720;23.336;2023-05-10T03:52:45;6.83;;;4.47;;
5295;SDS011;2670;42.720;23.336;2023-05-10T03:55:12;7.50;;;5.00;;
5295;SDS011;2670;42.720;23.336;2023-05-10T03:57:39;5.90;;;4.60;;
5295;SDS011;2670;42.720;23.336;2023-05-10T04:00:06;5.70;;;4.73;;
5295;SDS011;2670;42.720;23.336;2023-05-10T04:02:36;6.43;;;4.80;;
5295;SDS011;2670;42.720;23.336;2023-05-10T04:05:02;6.20;;;4.43;;
5295;SDS011;2670;42.720;23.336;2023-05-10T04:07:29;6.43;;;4.80;;
5295;SDS011;2670;42.720;23.336;2023-05-10T04:09:56;7.30;;;4.30;;
5295;SDS011;2670;42.720;23.336;2023-05-10T04:12:23;5.80;;;4.20;;
5295;SDS011;2670;42.720;23.336;2023-05-10T04:14:50;6.40;;;4.27;;
5295;SDS011;2670;42.720;23.336;2023-05-10T04:17:16;6.10;;;4.70;;
5295;SDS011;2670;42.720;23.336;2023-05-10T04:19:45;7.20;;;4.50;;
5295;SDS011;2670;42.720;23.336;2023-05-10T04:22:11;10.27;;;4.67;;
5295;SDS011;2670;42.720;23.336;2023-05-10T04:24:38;6.40;;;4.70;;
5295;SDS011;2670;42.720;23.336;2023-05-10T04:27:05;9.07;;;4.57;;
5295;SDS011;2670;42.720;23.336;2023-05-10T04:29:31;5.37;;;4.37;;
5295;SDS011;2670;42.720;23.336;2023-05-10T04:31:58;5.30;;;4.23;;
5295;SDS011;2670;42.720;23.336;2023-05-10T04:34:25;10.37;;;4.03;;
5295;SDS011;2670;42.720;23.336;2023-05-10T04:36:53;5.10;;;4.40;;
5295;SDS011;2670;42.720;23.336;2023-05-10T04:39:20;4.83;;;4.03;;
5295;SDS011;2670;42.720;23.336;2023-05-10T04:41:47;11.40;;;5.00;;
5295;SDS011;2670;42.720;23.336;2023-05-10T04:44:14;6.47;;;4.40;;
5295;SDS011;2670;42.720;23.336;2023-05-10T04:46:40;5.40;;;3.90;;
5295;SDS011;2670;42.720;23.336;2023-05-10T04:49:07;7.50;;;5.20;;
5295;SDS011;2670;42.720;23.336;2023-05-10T04:51:34;18.77;;;4.83;;
5295;SDS011;2670;42.720;23.336;2023-05-10T04:54:02;6.30;;;4.43;;
5295;SDS011;2670;42.720;23.336;2023-05-10T04:56:29;6.00;;;5.13;;
5295;SDS011;2670;42.720;23.336;2023-05-10T04:58:56;7.30;;;5.00;;
5295;SDS011;2670;42.720;23.336;2023-05-10T05:01:22;6.33;;;5.03;;
5295;SDS011;2670;42.720;23.336;2023-05-10T05:03:49;8.43;;;5.50;;
5295;SDS011;2670;42.720;23.336;2023-05-10T05:06:17;6.70;;;5.60;;
5295;SDS011;2670;42.720;23.336;2023-05-10T05:08:45;6.70;;;5.50;;
5295;SDS011;2670;42.720;23.336;2023-05-10T05:11:15;6.07;;;4.80;;
5295;SDS011;2670;42.720;23.336;2023-05-10T05:13:42;10.00;;;5.50;;
5295;SDS011;2670;42.720;23.336;2023-05-10T05:16:09;6.20;;;5.23;;
5295;SDS011;2670;42.720;23.336;2023-05-10T05:18:36;9.70;;;5.43;;
5295;SDS011;2670;42.720;23.336;2023-05-10T05:21:02;8.13;;;5.70;;
5295;SDS011;2670;42.720;23.336;2023-05-10T05:23:29;7.30;;;5.23;;
5295;SDS011;2670;42.720;23.336;2023-05-10T05:25:56;6.67;;;5.50;;
5295;SDS011;2670;42.720;23.336;2023-05-10T05:28:24;8.60;;;5.67;;
5295;SDS011;2670;42.720;23.336;2023-05-10T05:30:50;8.67;;;5.40;;
5295;SDS011;2670;42.720;23.336;2023-05-10T05:33:17;8.53;;;6.07;;
5295;SDS011;2670;42.720;23.336;2023-05-10T05:35:44;9.77;;;5.87;;
5295;SDS011;2670;42.720;23.336;2023-05-10T05:38:15;10.73;;;6.77;;
5295;SDS011;2670;42.720;23.336;2023-05-10T05:40:42;9.27;;;5.93;;
5295;SDS011;2670;42.720;23.336;2023-05-10T05:43:09;9.70;;;6.00;;
5295;SDS011;2670;42.720;23.336;2023-05-10T05:45:37;10.43;;;6.57;;
5295;SDS011;2670;42.720;23.336;2023-05-10T05:48:04;10.40;;;6.43;;
5295;SDS011;2670;42.720;23.336;2023-05-10T05:50:31;8.70;;;6.63;;
5295;SDS011;2670;42.720;23.336;2023-05-10T05:52:57;10.13;;;6.60;;
5295;SDS011;2670;42.720;23.336;2023-05-10T05:55:24;7.63;;;5.93;;
5295;SDS011;2670;42.720;23.336;2023-05-10T05:57:51;10.10;;;6.53;;
5295;SDS011;2670;42.720;23.336;2023-05-10T06:00:19;11.30;;;5.73;;
5295;SDS011;2670;42.720;23.336;2023-05-10T06:02:47;10.50;;;5.90;;
5295;SDS011;2670;42.720;23.336;2023-05-10T06:05:14;7.60;;;5.57;;
5295;SDS011;2670;42.720;23.336;2023-05-10T06:07:41;17.30;;;6.10;;
5295;SDS011;2670;42.720;23.336;2023-05-10T06:10:07;10.10;;;7.50;;
5295;SDS011;2670;42.720;23.336;2023-05-10T06:12:35;8.00;;;5.20;;
5295;SDS011;2670;42.720;23.336;2023-05-10T06:15:02;7.73;;;5.10;;
5295;SDS011;2670;42.720;23.336;2023-05-10T06:17:29;7.80;;;5.80;;
5295;SDS011;2670;42.720;23.336;2023-05-10T06:19:57;9.87;;;5.90;;
5295;SDS011;2670;42.720;23.336;2023-05-10T06:22:24;7.83;;;5.10;;
5295;SDS011;2670;42.720;23.336;2023-05-10T06:24:50;15.90;;;5.90;;
5295;SDS011;2670;42.720;23.336;2023-05-10T06:27:17;7.83;;;5.20;;
5295;SDS011;2670;42.720;23.336;2023-05-10T06:29:44;7.23;;;5.90;;
5295;SDS011;2670;42.720;23.336;2023-05-10T06:32:11;8.83;;;6.17;;
5295;SDS011;2670;42.720;23.336;2023-05-10T06:34:37;10.53;;;6.23;;
5295;SDS011;2670;42.720;23.336;2023-05-10T06:37:05;10.30;;;6.10;;
5295;SDS011;2670;42.720;23.336;2023-05-10T06:39:32;9.50;;;6.30;;
5295;SDS011;2670;42.720;23.336;2023-05-10T06:41:59;15.00;;;5.50;;
5295;SDS011;2670;42.720;23.336;2023-05-10T06:44:26;10.50;;;5.93;;
5295;SDS011;2670;42.720;23.336;2023-05-10T06:46:53;8.97;;;6.13;;
5295;SDS011;2670;42.720;23.336;2023-05-10T06:49:20;17.27;;;6.30;;
5295;SDS011;2670;42.720;23.336;2023-05-10T06:51:47;10.43;;;6.50;;
5295;SDS011;2670;42.720;23.336;2023-05-10T06:54:15;8.83;;;6.20;;
5295;SDS011;2670;42.720;23.336;2023-05-10T06:56:42;29.97;;;17.03;;
5295;SDS011;2670;42.720;23.336;2023-05-10T06:59:09;7.70;;;6.43;;
5295;SDS011;2670;42.720;23.336;2023-05-10T07:01:36;9.30;;;6.87;;
5295;SDS011;2670;42.720;23.336;2023-05-10T07:04:03;15.20;;;10.67;;
5295;SDS011;2670;42.720;23.336;2023-05-10T07:06:30;8.87;;;6.70;;
5295;SDS011;2670;42.720;23.336;2023-05-10T07:08:56;14.67;;;8.70;;
5295;SDS011;2670;42.720;23.336;2023-05-10T07:11:24;13.50;;;6.60;;
5295;SDS011;2670;42.720;23.336;2023-05-10T07:13:51;14.13;;;8.27;;
5295;SDS011;2670;42.720;23.336;2023-05-10T07:16:18;11.90;;;8.87;;
5295;SDS011;2670;42.720;23.336;2023-05-10T07:18:46;10.30;;;8.47;;
5295;SDS011;2670;42.720;23.336;2023-05-10T07:21:13;11.17;;;8.17;;
5295;SDS011;2670;42.720;23.336;2023-05-10T07:23:39;7.80;;;5.80;;
5295;SDS011;2670;42.720;23.336;2023-05-10T07:26:06;8.37;;;5.77;;
5295;SDS011;2670;42.720;23.336;2023-05-10T07:28:36;8.07;;;5.30;;
5295;SDS011;2670;42.720;23.336;2023-05-10T07:31:04;10.87;;;7.80;;
5295;SDS011;2670;42.720;23.336;2023-05-10T07:33:30;12.07;;;8.20;;
5295;SDS011;2670;42.720;23.336;2023-05-10T07:35:57;12.33;;;7.90;;
5295;SDS011;2670;42.720;23.336;2023-05-10T07:38:24;14.00;;;7.70;;
5295;SDS011;2670;42.720;23.336;2023-05-10T07:40:50;15.23;;;7.67;;
5295;SDS011;2670;42.720;23.336;2023-05-10T07:43:17;9.80;;;6.77;;
5295;SDS011;2670;42.720;23.336;2023-05-10T07:45:45;15.30;;;7.20;;
5295;SDS011;2670;42.720;23.336;2023-05-10T07:48:12;12.87;;;7.90;;
5295;SDS011;2670;42.720;23.336;2023-05-10T07:50:39;17.97;;;10.43;;
5295;SDS011;2670;42.720;23.336;2023-05-10T07:53:05;11.70;;;7.70;;
5295;SDS011;2670;42.720;23.336;2023-05-10T07:55:32;9.10;;;6.20;;
5295;SDS011;2670;42.720;23.336;2023-05-10T07:58:02;12.97;;;7.10;;
5295;SDS011;2670;42.720;23.336;2023-05-10T08:00:29;11.10;;;7.40;;
5295;SDS011;2670;42.720;23.336;2023-05-10T08:02:57;10.97;;;7.40;;
5295;SDS011;2670;42.720;23.336;2023-05-10T08:05:23;12.80;;;5.87;;
5295;SDS011;2670;42.720;23.336;2023-05-10T08:07:50;11.60;;;6.17;;
5295;SDS011;2670;42.720;23.336;2023-05-10T08:10:17;13.70;;;6.60;;
5295;SDS011;2670;42.720;23.336;2023-05-10T08:12:44;8.67;;;6.67;;
5295;SDS011;2670;42.720;23.336;2023-05-10T08:15:10;8.97;;;6.90;;
5295;SDS011;2670;42.720;23.336;2023-05-10T08:17:37;16.43;;;10.07;;
5295;SDS011;2670;42.720;23.336;2023-05-10T08:20:06;23.73;;;12.40;;
5295;SDS011;2670;42.720;23.336;2023-05-10T08:22:33;8.93;;;7.50;;
5295;SDS011;2670;42.720;23.336;2023-05-10T08:25:00;11.43;;;8.00;;
5295;SDS011;2670;42.720;23.336;2023-05-10T08:27:27;19.83;;;7.70;;
5295;SDS011;2670;42.720;23.336;2023-05-10T08:29:53;11.80;;;7.83;;
5295;SDS011;2670;42.720;23.336;2023-05-10T08:32:20;15.57;;;8.50;;
5295;SDS011;2670;42.720;23.336;2023-05-10T08:34:47;13.43;;;9.20;;
5295;SDS011;2670;42.720;23.336;2023-05-10T08:37:15;14.87;;;10.30;;
5295;SDS011;2670;42.720;23.336;2023-05-10T08:39:41;18.23;;;8.40;;
5295;SDS011;2670;42.720;23.336;2023-05-10T08:42:08;24.30;;;13.47;;
5295;SDS011;2670;42.720;23.336;2023-05-10T08:44:35;20.80;;;12.77;;
5295;SDS011;2670;42.720;23.336;2023-05-10T08:47:04;19.97;;;11.70;;
5295;SDS011;2670;42.720;23.336;2023-05-10T08:49:32;14.83;;;11.00;;
5295;SDS011;2670;42.720;23.336;2023-05-10T08:51:59;12.63;;;9.57;;
5295;SDS011;2670;42.720;23.336;2023-05-10T08:54:30;16.40;;;9.60;;
5295;SDS011;2670;42.720;23.336;2023-05-10T08:56:58;13.37;;;9.33;;
5295;SDS011;2670;42.720;23.336;2023-05-10T08:59:25;17.37;;;9.20;;
5295;SDS011;2670;42.720;23.336;2023-05-10T09:01:51;11.37;;;8.20;;
5295;SDS011;2670;42.720;23.336;2023-05-10T09:04:20;15.83;;;8.53;;
5295;SDS011;2670;42.720;23.336;2023-05-10T09:06:47;7.80;;;6.30;;
5295;SDS011;2670;42.720;23.336;2023-05-10T09:09:14;14.13;;;7.60;;
5295;SDS011;2670;42.720;23.336;2023-05-10T09:11:43;11.63;;;7.63;;
5295;SDS011;2670;42.720;23.336;2023-05-10T09:14:10;10.27;;;6.20;;
5295;SDS011;2670;42.720;23.336;2023-05-10T09:16:39;8.53;;;6.73;;
5295;SDS011;2670;42.720;23.336;2023-05-10T09:19:06;16.83;;;9.80;;
5295;SDS011;2670;42.720;23.336;2023-05-10T09:21:33;19.03;;;9.50;;
5295;SDS011;2670;42.720;23.336;2023-05-10T09:24:02;26.77;;;14.30;;
5295;SDS011;2670;42.720;23.336;2023-05-10T09:26:30;23.73;;;12.77;;
5295;SDS011;2670;42.720;23.336;2023-05-10T09:28:58;12.47;;;8.83;;
5295;SDS011;2670;42.720;23.336;2023-05-10T09:34:10;15.47;;;9.60;;
5295;SDS011;2670;42.720;23.336;2023-05-10T09:36:36;15.30;;;9.80;;
5295;SDS011;2670;42.720;23.336;2023-05-10T09:39:16;17.23;;;11.20;;
5295;SDS011;2670;42.720;23.336;2023-05-10T09:41:43;12.70;;;8.27;;
5295;SDS011;2670;42.720;23.336;2023-05-10T09:44:11;14.43;;;9.90;;
5295;SDS011;2670;42.720;23.336;2023-05-10T09:46:42;13.13;;;10.10;;
5295;SDS011;2670;42.720;23.336;2023-05-10T09:49:09;10.83;;;7.80;;
5295;SDS011;2670;42.720;23.336;2023-05-10T09:51:40;11.20;;;8.07;;
5295;SDS011;2670;42.720;23.336;2023-05-10T09:54:10;19.13;;;10.20;;
5295;SDS011;2670;42.720;23.336;2023-05-10T09:56:38;12.40;;;9.30;;
5295;SDS011;2670;42.720;23.336;2023-05-10T09:59:06;7.87;;;7.07;;
5295;SDS011;2670;42.720;23.336;2023-05-10T10:01:35;7.77;;;6.63;;
5295;SDS011;2670;42.720;23.336;2023-05-10T10:04:02;10.70;;;7.70;;
5295;SDS011;2670;42.720;23.336;2023-05-10T10:06:34;30.63;;;15.47;;
5295;SDS011;2670;42.720;23.336;2023-05-10T10:09:01;16.00;;;12.13;;
5295;SDS011;2670;42.720;23.336;2023-05-10T10:11:28;12.50;;;8.23;;
5295;SDS011;2670;42.720;23.336;2023-05-10T10:13:55;15.80;;;8.40;;
5295;SDS011;2670;42.720;23.336;2023-05-10T10:16:22;16.00;;;10.17;;
5295;SDS011;2670;42.720;23.336;2023-05-10T10:18:51;14.90;;;8.50;;
5295;SDS011;2670;42.720;23.336;2023-05-10T10:21:18;21.33;;;7.67;;
5295;SDS011;2670;42.720;23.336;2023-05-10T10:23:45;11.60;;;7.57;;
5295;SDS011;2670;42.720;23.336;2023-05-10T10:26:12;12.30;;;7.67;;
5295;SDS011;2670;42.720;23.336;2023-05-10T10:28:43;12.83;;;7.50;;
5295;SDS011;2670;42.720;23.336;2023-05-10T10:31:17;15.30;;;8.23;;
5295;SDS011;2670;42.720;23.336;2023-05-10T10:33:59;15.73;;;7.60;;
5295;SDS011;2670;42.720;23.336;2023-05-10T10:36:28;12.90;;;9.07;;
5295;SDS011;2670;42.720;23.336;2023-05-10T10:38:58;10.43;;;7.70;;
5295;SDS011;2670;42.720;23.336;2023-05-10T10:41:32;13.40;;;6.47;;
5295;SDS011;2670;42.720;23.336;2023-05-10T10:46:59;26.13;;;7.60;;
5295;SDS011;2670;42.720;23.336;2023-05-10T10:49:32;13.50;;;7.53;;
5295;SDS011;2670;42.720;23.336;2023-05-10T10:52:12;21.70;;;10.27;;
5295;SDS011;2670;42.720;23.336;2023-05-10T10:54:40;22.23;;;11.50;;
5295;SDS011;2670;42.720;23.336;2023-05-10T10:57:10;12.00;;;6.57;;
5295;SDS011;2670;42.720;23.336;2023-05-10T10:59:41;13.03;;;6.60;;
5295;SDS011;2670;42.720;23.336;2023-05-10T11:02:08;9.83;;;7.50;;
5295;SDS011;2670;42.720;23.336;2023-05-10T11:04:42;9.10;;;6.90;;
5295;SDS011;2670;42.720;23.336;2023-05-10T11:07:18;12.47;;;8.13;;
5295;SDS011;2670;42.720;23.336;2023-05-10T11:09:46;13.53;;;8.60;;
5295;SDS011;2670;42.720;23.336;2023-05-10T11:12:13;24.53;;;11.30;;
5295;SDS011;2670;42.720;23.336;2023-05-10T11:14:39;18.10;;;11.50;;
5295;SDS011;2670;42.720;23.336;2023-05-10T11:20:09;12.60;;;8.80;;
5295;SDS011;2670;42.720;23.336;2023-05-10T11:22:49;13.10;;;8.03;;
5295;SDS011;2670;42.720;23.336;2023-05-10T11:25:16;11.23;;;7.57;;
5295;SDS011;2670;42.720;23.336;2023-05-10T11:27:43;13.43;;;9.53;;
5295;SDS011;2670;42.720;23.336;2023-05-10T11:30:11;23.83;;;8.37;;
5295;SDS011;2670;42.720;23.336;2023-05-10T11:32:38;13.23;;;8.97;;
5295;SDS011;2670;42.720;23.336;2023-05-10T11:35:06;21.03;;;10.10;;
5295;SDS011;2670;42.720;23.336;2023-05-10T11:37:35;18.40;;;10.60;;
5295;SDS011;2670;42.720;23.336;2023-05-10T11:40:03;11.03;;;7.27;;
5295;SDS011;2670;42.720;23.336;2023-05-10T11:42:30;16.60;;;8.57;;
5295;SDS011;2670;42.720;23.336;2023-05-10T11:44:57;9.70;;;7.50;;
5295;SDS011;2670;42.720;23.336;2023-05-10T11:47:23;10.70;;;6.80;;
5295;SDS011;2670;42.720;23.336;2023-05-10T11:49:50;12.30;;;7.57;;
5295;SDS011;2670;42.720;23.336;2023-05-10T11:52:19;13.20;;;8.67;;
5295;SDS011;2670;42.720;23.336;2023-05-10T11:54:50;14.30;;;6.73;;
5295;SDS011;2670;42.720;23.336;2023-05-10T11:57:18;15.50;;;7.20;;
5295;SDS011;2670;42.720;23.336;2023-05-10T11:59:45;12.40;;;7.83;;
5295;SDS011;2670;42.720;23.336;2023-05-10T12:02:12;10.63;;;6.87;;
5295;SDS011;2670;42.720;23.336;2023-05-10T12:04:39;8.73;;;6.80;;
5295;SDS011;2670;42.720;23.336;2023-05-10T12:07:07;17.27;;;7.27;;
5295;SDS011;2670;42.720;23.336;2023-05-10T12:09:35;12.53;;;6.70;;
5295;SDS011;2670;42.720;23.336;2023-05-10T12:12:02;22.80;;;10.60;;
5295;SDS011;2670;42.720;23.336;2023-05-10T12:14:28;13.07;;;8.60;;
5295;SDS011;2670;42.720;23.336;2023-05-10T12:17:00;9.37;;;6.77;;
5295;SDS011;2670;42.720;23.336;2023-05-10T12:19:26;8.60;;;6.93;;
5295;SDS011;2670;42.720;23.336;2023-05-10T12:21:56;7.70;;;6.80;;
5295;SDS011;2670;42.720;23.336;2023-05-10T12:24:22;12.50;;;8.00;;
5295;SDS011;2670;42.720;23.336;2023-05-10T12:26:52;10.97;;;7.63;;
5295;SDS011;2670;42.720;23.336;2023-05-10T12:29:18;9.60;;;6.93;;
5295;SDS011;2670;42.720;23.336;2023-05-10T12:31:49;11.97;;;7.67;;
5295;SDS011;2670;42.720;23.336;2023-05-10T12:34:22;11.00;;;6.60;;
5295;SDS011;2670;42.720;23.336;2023-05-10T12:36:52;11.43;;;7.70;;
5295;SDS011;2670;42.720;23.336;2023-05-10T12:39:19;14.90;;;8.67;;
5295;SDS011;2670;42.720;23.336;2023-05-10T12:41:46;12.17;;;7.00;;
5295;SDS011;2670;42.720;23.336;2023-05-10T12:44:14;9.70;;;6.90;;
5295;SDS011;2670;42.720;23.336;2023-05-10T12:46:41;9.67;;;7.43;;
5295;SDS011;2670;42.720;23.336;2023-05-10T12:49:07;8.20;;;6.27;;
5295;SDS011;2670;42.720;23.336;2023-05-10T12:51:34;9.73;;;6.10;;
5295;SDS011;2670;42.720;23.336;2023-05-10T12:54:01;8.30;;;6.50;;
5295;SDS011;2670;42.720;23.336;2023-05-10T12:56:28;12.73;;;7.67;;
5295;SDS011;2670;42.720;23.336;2023-05-10T12:58:55;13.03;;;8.73;;
5295;SDS011;2670;42.720;23.336;2023-05-10T13:01:23;23.10;;;10.00;;
5295;SDS011;2670;42.720;23.336;2023-05-10T13:03:50;15.77;;;10.20;;
5295;SDS011;2670;42.720;23.336;2023-05-10T13:06:16;18.90;;;11.10;;
5295;SDS011;2670;42.720;23.336;2023-05-10T13:08:43;15.37;;;9.33;;
5295;SDS011;2670;42.720;23.336;2023-05-10T13:11:10;13.93;;;9.37;;
5295;SDS011;2670;42.720;23.336;2023-05-10T13:13:36;14.90;;;7.63;;
5295;SDS011;2670;42.720;23.336;2023-05-10T13:16:03;10.17;;;7.40;;
5295;SDS011;2670;42.720;23.336;2023-05-10T13:18:31;14.03;;;8.17;;
5295;SDS011;2670;42.720;23.336;2023-05-10T13:20:58;13.03;;;8.00;;
5295;SDS011;2670;42.720;23.336;2023-05-10T13:23:25;8.87;;;6.93;;
5295;SDS011;2670;42.720;23.336;2023-05-10T13:25:52;14.13;;;8.63;;
5295;SDS011;2670;42.720;23.336;2023-05-10T13:28:18;14.50;;;9.40;;
5295;SDS011;2670;42.720;23.336;2023-05-10T13:30:45;9.80;;;7.20;;
5295;SDS011;2670;42.720;23.336;2023-05-10T13:33:15;9.83;;;6.40;;
5295;SDS011;2670;42.720;23.336;2023-05-10T13:35:43;11.90;;;7.50;;
5295;SDS011;2670;42.720;23.336;2023-05-10T13:38:10;21.63;;;6.43;;
5295;SDS011;2670;42.720;23.336;2023-05-10T13:40:37;9.63;;;6.60;;
5295;SDS011;2670;42.720;23.336;2023-05-10T13:43:03;14.40;;;6.90;;
5295;SDS011;2670;42.720;23.336;2023-05-10T13:45:30;17.37;;;10.73;;
5295;SDS011;2670;42.720;23.336;2023-05-10T13:47:57;15.53;;;10.03;;
5295;SDS011;2670;42.720;23.336;2023-05-10T13:50:23;13.23;;;8.67;;
5295;SDS011;2670;42.720;23.336;2023-05-10T13:52:52;11.60;;;8.77;;
5295;SDS011;2670;42.720;23.336;2023-05-10T13:58:40;8.97;;;6.80;;
5295;SDS011;2670;42.720;23.336;2023-05-10T14:01:07;9.70;;;6.30;;
5295;SDS011;2670;42.720;23.336;2023-05-10T14:03:33;9.03;;;6.20;;
5295;SDS011;2670;42.720;23.336;2023-05-10T14:06:00;8.87;;;5.83;;
5295;SDS011;2670;42.720;23.336;2023-05-10T14:08:28;10.40;;;5.93;;
5295;SDS011;2670;42.720;23.336;2023-05-10T14:10:55;11.10;;;6.17;;
5295;SDS011;2670;42.720;23.336;2023-05-10T14:13:22;10.97;;;6.40;;
5295;SDS011;2670;42.720;23.336;2023-05-10T14:15:49;8.23;;;5.47;;
5295;SDS011;2670;42.720;23.336;2023-05-10T14:18:16;9.77;;;6.37;;
5295;SDS011;2670;42.720;23.336;2023-05-10T14:20:43;9.53;;;5.60;;
5295;SDS011;2670;42.720;23.336;2023-05-10T14:23:10;10.40;;;6.93;;
5295;SDS011;2670;42.720;23.336;2023-05-10T14:25:39;8.10;;;5.50;;
5295;SDS011;2670;42.720;23.336;2023-05-10T14:28:06;8.93;;;6.37;;
5295;SDS011;2670;42.720;23.336;2023-05-10T14:30:33;7.40;;;6.20;;
5295;SDS011;2670;42.720;23.336;2023-05-10T14:33:00;12.40;;;6.50;;
5295;SDS011;2670;42.720;23.336;2023-05-10T14:35:27;10.43;;;6.60;;
5295;SDS011;2670;42.720;23.336;2023-05-10T14:37:55;8.27;;;6.40;;
5295;SDS011;2670;42.720;23.336;2023-05-10T14:40:22;8.50;;;6.87;;
5295;SDS011;2670;42.720;23.336;2023-05-10T14:42:51;12.20;;;7.53;;
5295;SDS011;2670;42.720;23.336;2023-05-10T14:45:21;8.73;;;6.13;;
5295;SDS011;2670;42.720;23.336;2023-05-10T14:47:48;15.77;;;6.40;;
5295;SDS011;2670;42.720;23.336;2023-05-10T14:50:17;12.63;;;7.60;;
5295;SDS011;2670;42.720;23.336;2023-05-10T14:56:04;9.23;;;5.97;;
5295;SDS011;2670;42.720;23.336;2023-05-10T14:58:32;7.67;;;6.27;;
5295;SDS011;2670;42.720;23.336;2023-05-10T15:00:59;10.97;;;6.50;;
5295;SDS011;2670;42.720;23.336;2023-05-10T15:03:26;11.87;;;5.97;;
5295;SDS011;2670;42.720;23.336;2023-05-10T15:05:53;11.50;;;6.17;;
5295;SDS011;2670;42.720;23.336;2023-05-10T15:08:21;8.47;;;6.60;;
5295;SDS011;2670;42.720;23.336;2023-05-10T15:10:48;9.90;;;6.07;;
5295;SDS011;2670;42.720;23.336;2023-05-10T15:13:15;13.93;;;7.27;;